createdAt,value
2023-05-22T00:00:03.860Z,60.5552
2023-05-22T00:01:06.222Z,62.4634
2023-05-22T00:02:08.559Z,60.9621
2023-05-22T00:03:11.277Z,63.0327
2023-05-22T00:04:12.995Z,62.3871
2023-05-22T00:05:16.020Z,60.5250
2023-05-22T00:06:18.210Z,60.8289
2023-05-22T00:07:20.633Z,63.3347
2023-05-22T00:08:22.524Z,65.1485
2023-05-22T00:09:24.657Z,62.3536
2023-05-22T00:10:26.968Z,64.3262
2023-05-22T00:11:29.701Z,64.8050
2023-05-22T00:12:31.609Z,58.0671
2023-05-22T00:13:34.120Z,63.2840
2023-05-22T00:14:36.828Z,60.5024
2023-05-22T00:15:38.761Z,63.7646
2023-05-22T00:16:41.345Z,58.4979
2023-05-22T00:17:43.599Z,61.1135
2023-05-22T00:18:45.573Z,64.7789
2023-05-22T00:19:48.360Z,63.0668
2023-05-22T00:20:50.758Z,63.4662
2023-05-22T00:21:53.032Z,61.5757
2023-05-22T00:22:55.031Z,66.0356
2023-05-22T00:23:57.325Z,65.5054
2023-05-22T00:25:00.439Z,63.2678
2023-05-22T00:26:02.105Z,62.8287
2023-05-22T00:27:04.728Z,62.6293
2023-05-22T00:28:07.019Z,61.9545
2023-05-22T00:29:09.456Z,60.5663
2023-05-22T00:30:11.393Z,59.3725
2023-05-22T00:31:13.901Z,66.8583
2023-05-22T00:32:16.622Z,67.4332
2023-05-22T00:33:18.896Z,61.9147
2023-05-22T00:34:21.134Z,61.5380
2023-05-22T00:35:23.416Z,58.8364
2023-05-22T00:36:25.354Z,62.2655
2023-05-22T00:37:28.007Z,55.8516
2023-05-22T00:38:30.103Z,58.6793
2023-05-22T00:39:32.436Z,61.6690
2023-05-22T00:40:35.142Z,62.7593
2023-05-22T00:41:37.518Z,63.1501
2023-05-22T00:42:39.294Z,59.8141
2023-05-22T00:43:41.798Z,61.5374
2023-05-22T00:44:44.396Z,60.3916
2023-05-22T00:45:46.766Z,58.1493
2023-05-22T00:46:48.898Z,60.2673
2023-05-22T00:47:51.103Z,61.7521
2023-05-22T00:48:53.839Z,57.7528
2023-05-22T00:49:56.061Z,63.1567
2023-05-22T00:50:57.977Z,60.7908
2023-05-22T00:52:00.599Z,61.5444
2023-05-22T00:53:02.840Z,67.7194
2023-05-22T00:54:05.188Z,61.2195
2023-05-22T00:55:07.419Z,91.0389
2023-05-22T00:56:10.034Z,93.3148
2023-05-22T00:57:12.125Z,70.7216
2023-05-22T00:58:14.491Z,70.4608
2023-05-22T00:59:16.791Z,65.1583
2023-05-22T01:00:19.212Z,61.5539
2023-05-22T01:01:21.442Z,62.5927
2023-05-22T01:02:23.962Z,63.5272
2023-05-22T01:03:27.417Z,58.4112
2023-05-22T01:04:28.337Z,61.7497
2023-05-22T01:05:31.027Z,62.2810
2023-05-22T01:06:33.038Z,57.6976
2023-05-22T01:07:35.738Z,56.3991
2023-05-22T01:08:38.009Z,54.8365
2023-05-22T01:09:39.737Z,60.1385
2023-05-22T01:10:42.703Z,58.2267
2023-05-22T01:11:45.031Z,55.6221
2023-05-22T01:12:47.174Z,58.3838
2023-05-22T01:13:49.427Z,55.1145
2023-05-22T01:14:52.242Z,55.7336
2023-05-22T01:15:54.598Z,57.4183
2023-05-22T01:16:56.539Z,57.0541
2023-05-22T01:17:59.062Z,59.1131
2023-05-22T01:19:01.019Z,59.2737
2023-05-22T01:20:03.325Z,57.0790
2023-05-22T01:21:06.302Z,54.3913
2023-05-22T01:22:08.601Z,52.3723
2023-05-22T01:23:10.957Z,57.9881
2023-05-22T01:24:12.908Z,54.4482
2023-05-22T01:25:15.658Z,57.3321
2023-05-22T01:26:17.324Z,57.7621
2023-05-22T01:27:19.852Z,54.4717
2023-05-22T01:28:22.425Z,51.6051
2023-05-22T01:29:24.264Z,54.1762
2023-05-22T01:30:27.031Z,55.0603
2023-05-22T01:31:29.754Z,53.5482
2023-05-22T01:32:31.919Z,53.5385
2023-05-22T01:33:34.437Z,50.7970
2023-05-22T01:34:36.313Z,54.3381
2023-05-22T01:35:38.653Z,51.3510
2023-05-22T01:36:41.256Z,54.0106
2023-05-22T01:37:43.645Z,53.7514
2023-05-22T01:38:45.446Z,53.7426
2023-05-22T01:39:48.608Z,50.8481
2023-05-22T01:40:50.146Z,51.1710
2023-05-22T01:41:52.654Z,53.5238
2023-05-22T01:42:54.738Z,50.0917
2023-05-22T01:43:57.463Z,47.7538
2023-05-22T01:44:59.759Z,49.1853
2023-05-22T01:46:02.047Z,50.6208
2023-05-22T01:47:04.440Z,50.0476
2023-05-22T01:48:06.479Z,49.6407
2023-05-22T01:49:08.864Z,47.4358
2023-05-22T01:50:11.231Z,47.1777
2023-05-22T01:51:13.986Z,50.4897
2023-05-22T01:52:15.981Z,48.3522
2023-05-22T01:53:18.607Z,49.6810
2023-05-22T01:54:20.962Z,50.8743
2023-05-22T01:55:23.008Z,49.5624
2023-05-22T01:56:25.405Z,47.8600
2023-05-22T01:57:28.097Z,52.1883
2023-05-22T01:58:29.842Z,51.3292
2023-05-22T01:59:32.683Z,51.8657
2023-05-22T02:00:34.700Z,49.6678
2023-05-22T02:01:37.027Z,50.1710
2023-05-22T02:02:39.495Z,50.3828
2023-05-22T02:03:41.998Z,52.7334
2023-05-22T02:04:44.203Z,49.1074
2023-05-22T02:05:46.565Z,49.3561
2023-05-22T02:06:48.837Z,51.1277
2023-05-22T02:07:51.408Z,49.1666
2023-05-22T02:08:53.809Z,50.8736
2023-05-22T02:09:55.969Z,50.1767
2023-05-22T02:10:58.188Z,50.8012
2023-05-22T02:11:59.949Z,52.7884
2023-05-22T02:13:02.874Z,53.5178
2023-05-22T02:14:04.877Z,50.7478
2023-05-22T02:15:08.065Z,51.3121
2023-05-22T02:16:09.878Z,51.5646
2023-05-22T02:17:12.554Z,52.8586
2023-05-22T02:18:14.847Z,51.5214
2023-05-22T02:19:16.660Z,55.2374
2023-05-22T02:20:18.952Z,51.3692
2023-05-22T02:21:21.444Z,52.0640
2023-05-22T02:22:23.677Z,53.8524
2023-05-22T02:23:25.941Z,54.6535
2023-05-22T02:24:28.702Z,56.0527
2023-05-22T02:25:30.669Z,52.6191
2023-05-22T02:26:33.216Z,53.2449
2023-05-22T02:27:35.284Z,54.2590
2023-05-22T02:28:37.928Z,59.7454
2023-05-22T02:29:40.631Z,55.6473
2023-05-22T02:30:42.522Z,54.3522
2023-05-22T02:31:45.110Z,55.0890
2023-05-22T02:32:47.110Z,57.4162
2023-05-22T02:33:49.847Z,54.2318
2023-05-22T02:34:54.691Z,56.1397
2023-05-22T02:35:58.905Z,53.3579
2023-05-22T02:37:01.223Z,55.3481
2023-05-22T02:38:03.650Z,53.7158
2023-05-22T02:39:05.907Z,54.5709
2023-05-22T02:40:08.260Z,56.8015
2023-05-22T02:41:11.101Z,53.7147
2023-05-22T02:42:13.156Z,56.0963
2023-05-22T02:43:15.400Z,58.2157
2023-05-22T02:44:18.088Z,55.6026
2023-05-22T02:45:19.843Z,58.9751
2023-05-22T02:46:22.061Z,55.4155
2023-05-22T02:47:24.619Z,55.8895
2023-05-22T02:48:27.377Z,56.4085
2023-05-22T02:49:29.916Z,59.0809
2023-05-22T02:50:31.781Z,59.6816
2023-05-22T02:51:34.354Z,57.0131
2023-05-22T02:52:36.585Z,58.5204
2023-05-22T02:53:39.299Z,56.4553
2023-05-22T02:54:41.305Z,59.2004
2023-05-22T02:55:43.298Z,55.4223
2023-05-22T02:56:46.338Z,57.2801
2023-05-22T02:57:48.238Z,59.0090
2023-05-22T02:58:50.399Z,60.2803
2023-05-22T02:59:52.996Z,59.4891
2023-05-22T03:00:55.349Z,60.5638
2023-05-22T03:01:57.910Z,57.8928
2023-05-22T03:03:00.138Z,61.8973
2023-05-22T03:04:02.230Z,59.7274
2023-05-22T03:05:04.886Z,64.0871
2023-05-22T03:06:06.726Z,62.1611
2023-05-22T03:07:09.035Z,60.7567
2023-05-22T03:08:11.708Z,61.8256
2023-05-22T03:09:14.121Z,61.3247
2023-05-22T03:10:16.411Z,61.4248
2023-05-22T03:11:18.255Z,63.0401
2023-05-22T03:12:21.174Z,63.5413
2023-05-22T03:13:23.523Z,62.1572
2023-05-22T03:14:25.947Z,60.9782
2023-05-22T03:15:28.186Z,61.7503
2023-05-22T03:16:30.036Z,58.5425
2023-05-22T03:17:32.931Z,58.8354
2023-05-22T03:18:35.275Z,64.4803
2023-05-22T03:19:37.334Z,65.8032
2023-05-22T03:20:39.503Z,68.1957
2023-05-22T03:21:42.084Z,65.9533
2023-05-22T03:22:44.502Z,66.5196
2023-05-22T03:23:46.693Z,66.3939
2023-05-22T03:24:49.237Z,68.2429
2023-05-22T03:25:51.428Z,65.4140
2023-05-22T03:26:53.225Z,66.3701
2023-05-22T03:27:56.117Z,65.2693
2023-05-22T03:28:58.511Z,64.2520
2023-05-22T03:30:00.657Z,62.8769
2023-05-22T03:31:03.181Z,55.9363
2023-05-22T03:32:05.571Z,59.6401
2023-05-22T03:33:07.411Z,60.6698
2023-05-22T03:34:09.876Z,60.7555
2023-05-22T03:35:12.144Z,62.4617
2023-05-22T03:36:15.110Z,60.2898
2023-05-22T03:37:16.758Z,59.0680
2023-05-22T03:38:19.453Z,56.8742
2023-05-22T03:39:21.297Z,57.6577
2023-05-22T03:40:24.130Z,56.7740
2023-05-22T03:41:25.979Z,62.1666
2023-05-22T03:42:28.518Z,61.0966
2023-05-22T03:43:31.035Z,60.3146
2023-05-22T03:44:33.507Z,57.9700
2023-05-22T03:45:35.743Z,60.2143
2023-05-22T03:46:37.837Z,61.1759
2023-05-22T03:47:40.760Z,62.9958
2023-05-22T03:48:42.322Z,59.8765
2023-05-22T03:49:45.081Z,56.5669
2023-05-22T03:50:47.356Z,57.6682
2023-05-22T03:51:49.873Z,59.4745
2023-05-22T03:52:51.979Z,60.7698
2023-05-22T03:53:54.106Z,58.1001
2023-05-22T03:54:56.745Z,53.6075
2023-05-22T03:55:58.687Z,58.5534
2023-05-22T03:57:01.159Z,60.1659
2023-05-22T03:58:03.641Z,57.1277
2023-05-22T03:59:06.035Z,60.4176
2023-05-22T04:00:08.259Z,57.5903
2023-05-22T04:01:10.549Z,62.8816
2023-05-22T04:02:12.805Z,64.0615
2023-05-22T04:03:15.067Z,65.4027
2023-05-22T04:04:17.858Z,64.6918
2023-05-22T04:05:19.753Z,65.1292
2023-05-22T04:06:21.977Z,65.7883
2023-05-22T04:07:24.166Z,62.7441
2023-05-22T04:08:27.179Z,61.5116
2023-05-22T04:09:28.966Z,59.4691
2023-05-22T04:10:31.552Z,61.7662
2023-05-22T04:11:33.583Z,64.7039
2023-05-22T04:12:36.514Z,61.7446
2023-05-22T04:13:38.856Z,61.0691
2023-05-22T04:14:41.117Z,62.3154
2023-05-22T04:15:43.178Z,60.4415
2023-05-22T04:16:45.349Z,59.9994
2023-05-22T04:17:47.804Z,57.7013
2023-05-22T04:18:50.558Z,59.3517
2023-05-22T04:19:52.190Z,56.2840
2023-05-22T04:20:55.111Z,59.5461
2023-05-22T04:21:57.288Z,59.6103
2023-05-22T04:22:59.499Z,61.3296
2023-05-22T04:24:01.518Z,59.0908
2023-05-22T04:25:04.312Z,62.1960
2023-05-22T04:26:06.792Z,57.4130
2023-05-22T04:27:08.796Z,56.3195
2023-05-22T04:28:10.956Z,61.0681
2023-05-22T04:29:13.416Z,64.2212
2023-05-22T04:30:16.168Z,64.8862
2023-05-22T04:31:17.958Z,63.5820
2023-05-22T04:32:20.367Z,61.1767
2023-05-22T04:33:22.725Z,57.9155
2023-05-22T04:34:25.403Z,62.2583
2023-05-22T04:35:27.452Z,60.7380
2023-05-22T04:36:29.772Z,57.9299
2023-05-22T04:37:32.399Z,60.7137
2023-05-22T04:38:34.628Z,61.7031
2023-05-22T04:39:36.503Z,63.5721
2023-05-22T04:40:39.175Z,62.7185
2023-05-22T04:41:41.807Z,60.1907
2023-05-22T04:42:43.650Z,63.0986
2023-05-22T04:43:46.308Z,62.0992
2023-05-22T04:44:48.602Z,62.0555
2023-05-22T04:45:50.337Z,59.7787
2023-05-22T04:46:52.921Z,63.7190
2023-05-22T04:47:55.742Z,64.5251
2023-05-22T04:48:57.431Z,58.6600
2023-05-22T04:50:00.231Z,60.1100
2023-05-22T04:51:02.560Z,60.1792
2023-05-22T04:52:04.688Z,60.9805
2023-05-22T04:53:06.798Z,62.7009
2023-05-22T04:54:09.693Z,61.8755
2023-05-22T04:55:11.529Z,58.9151
2023-05-22T04:56:16.591Z,61.2756
2023-05-22T04:57:21.542Z,65.7290
2023-05-22T04:58:23.814Z,63.8010
2023-05-22T04:59:26.104Z,62.3443
2023-05-22T05:00:27.889Z,63.8446
2023-05-22T05:01:32.396Z,62.8616
2023-05-22T05:02:37.940Z,62.7646
2023-05-22T05:03:40.294Z,61.9949
2023-05-22T05:04:42.045Z,59.8016
2023-05-22T05:05:44.134Z,63.3491
2023-05-22T05:06:47.106Z,60.6504
2023-05-22T05:07:50.266Z,61.9257
2023-05-22T05:08:51.313Z,61.8297
2023-05-22T05:09:54.059Z,60.8543
2023-05-22T05:10:56.455Z,63.4673
2023-05-22T05:11:58.787Z,65.8742
2023-05-22T05:13:01.143Z,63.6251
2023-05-22T05:14:03.418Z,64.7371
2023-05-22T05:15:05.520Z,59.2753
2023-05-22T05:16:08.342Z,62.1338
2023-05-22T05:17:10.093Z,58.6964
2023-05-22T05:18:12.432Z,62.5536
2023-05-22T05:19:15.230Z,61.7063
2023-05-22T05:20:16.868Z,61.1356
2023-05-22T05:21:19.486Z,58.6115
2023-05-22T05:22:21.951Z,57.8381
2023-05-22T05:23:24.615Z,57.0169
2023-05-22T05:24:26.613Z,55.5369
2023-05-22T05:25:29.122Z,55.3606
2023-05-22T05:26:31.511Z,53.0123
2023-05-22T05:28:44.959Z,63.1045
2023-05-22T05:29:47.638Z,54.6246
2023-05-22T05:30:50.313Z,59.4573
2023-05-22T05:31:52.977Z,59.0785
2023-05-22T05:32:55.107Z,61.0737
2023-05-22T05:33:57.312Z,61.4825
2023-05-22T05:34:59.815Z,59.5994
2023-05-22T05:36:01.944Z,63.2943
2023-05-22T05:37:04.597Z,60.8969
2023-05-22T05:38:06.314Z,65.8769
2023-05-22T05:39:08.519Z,63.0522
2023-05-22T05:40:10.984Z,65.7871
2023-05-22T05:41:13.585Z,62.1991
2023-05-22T05:42:15.581Z,62.8684
2023-05-22T05:43:18.138Z,66.9378
2023-05-22T05:44:20.204Z,69.4941
2023-05-22T05:45:22.286Z,68.4515
2023-05-22T05:46:25.412Z,70.2964
2023-05-22T05:47:27.784Z,73.4934
2023-05-22T05:48:29.491Z,76.2868
2023-05-22T05:49:33.623Z,70.1439
2023-05-22T05:50:39.472Z,63.0846
2023-05-22T05:51:41.246Z,69.1117
2023-05-22T05:52:44.009Z,68.0209
2023-05-22T05:53:46.175Z,71.0065
2023-05-22T05:54:48.490Z,66.9185
2023-05-22T05:55:50.808Z,68.3374
2023-05-22T05:56:52.869Z,70.8404
2023-05-22T05:57:55.250Z,70.6403
2023-05-22T05:58:58.198Z,67.5009
2023-05-22T06:00:00.209Z,62.1737
2023-05-22T06:01:02.597Z,65.9950
2023-05-22T06:02:04.848Z,71.5259
2023-05-22T06:03:07.028Z,68.8185
2023-05-22T06:04:09.278Z,73.9285
2023-05-22T06:05:12.032Z,68.0561
2023-05-22T06:06:14.177Z,69.4199
2023-05-22T06:07:16.216Z,65.7475
2023-05-22T06:08:18.764Z,67.7414
2023-05-22T06:09:21.360Z,68.9015
2023-05-22T06:10:23.393Z,68.8406
2023-05-22T06:11:25.862Z,69.2243
2023-05-22T06:12:28.089Z,67.3588
2023-05-22T06:13:30.611Z,67.9342
2023-05-22T06:14:33.164Z,67.2274
2023-05-22T06:15:35.372Z,70.0422
2023-05-22T06:16:37.761Z,68.0340
2023-05-22T06:17:40.078Z,70.7127
2023-05-22T06:18:42.370Z,68.1777
2023-05-22T06:19:44.862Z,68.9273
2023-05-22T06:20:46.717Z,68.0181
2023-05-22T06:21:49.817Z,65.9146
2023-05-22T06:22:56.555Z,72.3133
2023-05-22T06:23:58.804Z,70.0604
2023-05-22T06:25:00.845Z,69.4646
2023-05-22T06:26:03.164Z,67.7402
2023-05-22T06:27:05.910Z,72.5627
2023-05-22T06:28:08.096Z,67.1310
2023-05-22T06:29:10.479Z,65.3320
2023-05-22T06:30:13.017Z,70.1648
2023-05-22T06:31:14.897Z,72.0239
2023-05-22T06:32:17.528Z,70.5665
2023-05-22T06:33:19.720Z,68.5279
2023-05-22T06:34:22.293Z,68.7888
2023-05-22T06:35:24.130Z,63.4724
2023-05-22T06:36:26.919Z,68.8213
2023-05-22T06:37:29.344Z,68.1941
2023-05-22T14:54:46.159Z,69.2902
2023-05-22T14:54:46.159Z,71.9251
2023-05-22T14:55:47.953Z,29.7769
2023-05-22T14:56:50.777Z,31.6644
2023-05-22T14:57:53.115Z,31.8506
2023-05-22T14:58:55.568Z,34.3696
2023-05-22T14:59:57.440Z,32.6661
2023-05-22T15:01:00.116Z,29.3393
2023-05-22T15:02:02.418Z,32.6633
2023-05-22T15:03:04.894Z,31.1458
2023-05-22T15:04:07.075Z,31.8211
2023-05-22T15:05:09.569Z,32.6540
2023-05-22T15:06:11.910Z,33.9355
2023-05-22T15:07:14.257Z,34.3111
2023-05-22T15:08:16.563Z,34.9463
2023-05-22T15:09:19.080Z,34.6925
2023-05-22T15:10:21.478Z,33.3612
2023-05-22T15:11:23.696Z,32.8046
2023-05-22T15:12:26.107Z,35.3661
2023-05-22T15:13:28.425Z,35.0656
2023-05-22T15:14:30.663Z,35.0794
2023-05-22T15:15:33.319Z,33.7821
2023-05-22T15:16:35.568Z,34.2795
2023-05-22T15:17:39.429Z,31.8472
2023-05-22T15:18:45.029Z,34.7318
2023-05-22T15:19:47.511Z,34.5325
2023-05-22T15:20:49.745Z,34.5490
2023-05-22T15:21:52.074Z,36.0721
2023-05-22T15:22:54.443Z,36.4387
2023-05-22T15:23:56.732Z,36.6807
2023-05-22T15:24:58.928Z,36.0282
2023-05-22T15:26:01.702Z,36.7386
2023-05-22T15:27:03.998Z,37.7965
2023-05-22T15:28:06.277Z,35.5417
2023-05-22T15:29:08.499Z,38.7569
2023-05-22T15:30:10.858Z,40.2493
2023-05-22T15:31:13.201Z,38.3987
2023-05-22T15:32:15.630Z,37.9705
2023-05-22T15:33:18.067Z,37.8622
2023-05-22T15:34:20.498Z,34.6988
2023-05-22T15:35:22.759Z,36.4547
2023-05-22T15:36:24.915Z,37.3283
2023-05-22T15:37:27.641Z,40.0452
2023-05-22T15:38:29.734Z,37.4861
2023-05-22T15:39:31.977Z,37.6922
2023-05-22T15:40:34.461Z,38.8837
2023-05-22T15:41:36.301Z,39.4106
2023-05-22T15:42:38.597Z,39.7456
2023-05-22T15:43:40.964Z,38.4699
2023-05-22T15:44:43.279Z,39.2404
2023-05-22T15:45:45.558Z,37.8353
2023-05-22T15:46:47.969Z,37.8177
2023-05-22T15:47:50.407Z,41.7287
2023-05-22T15:48:52.720Z,37.6126
2023-05-22T15:49:55.310Z,37.4193
2023-05-22T15:50:57.294Z,39.6619
2023-05-22T15:51:59.859Z,37.3499
2023-05-22T15:53:02.138Z,35.5420
2023-05-22T15:54:04.485Z,36.2577
2023-05-22T15:55:06.953Z,40.4325
2023-05-22T15:56:08.999Z,39.3374
2023-05-22T15:57:11.750Z,40.3607
2023-05-22T15:58:14.228Z,39.0588
2023-05-22T15:59:16.336Z,37.9234
2023-05-22T16:00:18.766Z,37.9599
2023-05-22T16:01:21.363Z,40.5420
2023-05-22T16:02:23.573Z,35.6111
2023-05-22T16:03:25.994Z,33.3870
2023-05-22T16:04:28.238Z,34.4163
2023-05-22T16:05:30.402Z,38.5939
2023-05-22T16:06:32.848Z,34.0098
2023-05-22T16:07:35.086Z,37.1298
2023-05-22T16:08:37.528Z,40.5496
2023-05-22T16:09:39.877Z,38.5963
2023-05-22T16:10:42.597Z,39.6504
2023-05-22T16:11:44.862Z,39.5008
2023-05-22T16:12:47.183Z,38.5425
2023-05-22T16:13:49.600Z,40.2136
2023-05-22T16:14:51.941Z,40.2227
2023-05-22T16:15:59.005Z,38.5782
2023-05-22T16:17:01.370Z,39.4575
2023-05-22T16:18:03.706Z,39.7868
2023-05-22T16:19:06.183Z,41.6641
2023-05-22T16:20:08.349Z,43.2116
2023-05-22T16:21:10.647Z,45.1886
2023-05-22T16:22:12.988Z,35.8650
2023-05-22T16:23:15.238Z,36.8703
2023-05-22T16:24:17.694Z,38.3155
2023-05-22T16:25:19.790Z,37.0650
2023-05-22T16:26:22.344Z,38.0228
2023-05-22T16:27:24.681Z,40.7660
2023-05-22T16:28:26.981Z,38.8042
2023-05-22T16:29:29.428Z,34.9990
2023-05-22T16:30:31.596Z,36.5950
2023-05-22T16:31:34.220Z,40.7540
2023-05-22T16:32:36.454Z,38.1297
2023-05-22T16:33:38.567Z,42.2446
2023-05-22T16:34:41.164Z,46.9348
2023-05-22T16:35:43.667Z,50.0295
2023-05-22T16:36:46.091Z,53.4029
2023-05-22T16:37:48.102Z,51.9492
2023-05-22T16:38:50.251Z,54.1916
2023-05-22T16:39:52.880Z,52.3013
2023-05-22T16:40:54.742Z,51.6851
2023-05-22T16:41:57.295Z,49.7501
2023-05-22T16:42:59.474Z,51.4920
2023-05-22T16:44:02.326Z,53.9189
2023-05-22T16:45:04.717Z,50.6127
2023-05-22T16:46:06.938Z,50.6908
2023-05-22T16:47:09.297Z,51.5115
2023-05-22T16:48:11.610Z,50.1892
2023-05-22T16:49:13.777Z,51.2032
2023-05-22T16:50:15.874Z,54.6477
2023-05-22T16:51:18.146Z,49.7643
2023-05-22T16:52:20.876Z,50.9988
2023-05-22T16:53:23.037Z,46.4698
2023-05-22T16:54:25.481Z,47.2600
2023-05-22T16:55:28.027Z,46.5276
2023-05-22T16:56:29.965Z,42.3848
2023-05-22T16:57:32.292Z,42.2454
2023-05-22T16:58:34.583Z,45.6143
2023-05-22T16:59:37.132Z,45.6605
2023-05-22T17:00:39.574Z,44.8107
2023-05-22T17:01:42.071Z,48.9883
2023-05-22T17:02:44.326Z,45.8906
2023-05-22T17:03:46.812Z,45.6060
2023-05-22T17:04:48.779Z,47.3946
2023-05-22T17:05:51.341Z,48.5848
2023-05-22T17:06:53.225Z,50.9238
2023-05-22T17:07:55.881Z,49.6804
2023-05-22T17:08:58.086Z,54.0016
2023-05-22T17:10:00.534Z,49.2811
2023-05-22T17:11:03.064Z,51.5642
2023-05-22T17:12:05.381Z,51.7595
2023-05-22T17:13:07.380Z,52.5763
2023-05-22T17:14:09.896Z,54.8970
2023-05-22T17:15:12.439Z,51.5398
2023-05-22T17:16:14.439Z,47.9058
2023-05-22T17:17:16.729Z,52.0239
2023-05-22T17:18:19.507Z,54.8207
2023-05-22T17:19:21.598Z,55.1878
2023-05-22T17:20:23.875Z,55.3111
2023-05-22T17:21:25.960Z,53.6684
2023-05-22T17:22:28.476Z,53.8498
2023-05-22T17:23:30.678Z,54.6595
2023-05-22T17:24:33.234Z,51.9038
2023-05-22T17:25:35.734Z,52.6052
2023-05-22T17:26:37.917Z,53.2385
2023-05-22T17:27:40.112Z,52.2453
2023-05-22T17:28:42.975Z,49.5925
2023-05-22T17:29:45.157Z,50.1482
2023-05-22T17:30:47.673Z,52.9209
2023-05-22T17:31:49.872Z,51.3847
2023-05-22T17:32:52.355Z,53.3674
2023-05-22T17:33:54.772Z,53.1345
2023-05-22T17:34:56.758Z,53.0834
2023-05-22T17:35:58.760Z,54.9184
2023-05-22T17:37:01.515Z,57.8792
2023-05-22T17:38:03.926Z,52.3780
2023-05-22T17:39:05.799Z,54.8980
2023-05-22T17:40:08.520Z,51.8856
2023-05-22T17:41:10.620Z,51.7531
2023-05-22T17:42:13.013Z,51.5685
2023-05-22T17:43:15.687Z,53.7314
2023-05-22T17:44:17.493Z,52.3147
2023-05-22T17:45:19.849Z,52.8360
2023-05-22T17:46:22.536Z,52.0873
2023-05-22T17:47:24.793Z,53.6230
2023-05-22T17:48:27.557Z,51.9870
2023-05-22T17:49:29.326Z,50.1144
2023-05-22T17:50:32.150Z,51.4039
2023-05-22T17:51:34.620Z,52.7515
2023-05-22T17:52:36.438Z,51.1874
2023-05-22T17:53:39.343Z,52.8607
2023-05-22T17:54:40.872Z,52.8638
2023-05-22T17:55:43.808Z,50.4393
2023-05-22T17:56:46.128Z,50.4392
2023-05-22T17:57:48.541Z,50.3131
2023-05-22T17:58:51.103Z,49.8372
2023-05-22T17:59:52.882Z,51.0780
2023-05-22T18:00:54.906Z,47.2082
2023-05-22T18:01:57.339Z,50.4344
2023-05-22T18:02:59.748Z,49.7616
2023-05-22T18:04:02.732Z,50.3857
2023-05-22T18:05:04.499Z,49.3387
2023-05-22T18:06:06.862Z,52.5922
2023-05-22T18:07:09.050Z,49.5364
2023-05-22T18:08:11.542Z,52.2049
2023-05-22T18:09:13.778Z,46.0766
2023-05-22T18:10:16.579Z,47.2823
2023-05-22T18:11:18.665Z,42.2938
2023-05-22T18:13:28.235Z,46.9854
2023-05-22T18:14:30.269Z,50.9534
2023-05-22T18:15:32.836Z,54.4298
2023-05-22T18:16:34.391Z,47.9860
2023-05-22T18:17:37.580Z,48.1462
2023-05-22T18:18:40.205Z,51.3619
2023-05-22T18:19:41.900Z,48.4699
2023-05-22T18:20:44.503Z,46.4420
2023-05-22T18:21:46.391Z,49.8620
2023-05-22T18:22:49.295Z,46.1317
2023-05-22T18:23:51.292Z,44.9539
2023-05-22T18:24:54.067Z,49.0346
2023-05-22T18:25:55.940Z,46.5701
2023-05-22T18:26:58.300Z,52.2137
2023-05-22T18:28:01.122Z,48.6059
2023-05-22T18:29:03.441Z,50.5071
2023-05-22T18:30:05.612Z,44.7641
2023-05-22T18:31:07.894Z,48.1466
2023-05-22T18:32:09.885Z,42.3550
2023-05-22T18:33:12.622Z,51.0502
2023-05-22T18:34:14.690Z,49.9633
2023-05-22T18:35:17.532Z,52.0669
2023-05-22T18:36:19.726Z,54.7939
2023-05-22T18:37:21.897Z,54.6229
2023-05-22T18:38:24.131Z,47.5721
2023-05-22T18:39:26.832Z,48.5148
2023-05-22T18:40:29.191Z,51.1170
2023-05-22T18:41:30.816Z,56.3806
2023-05-22T18:42:33.526Z,53.3058
2023-05-22T18:43:36.303Z,52.8479
2023-05-22T18:44:38.735Z,54.9381
2023-05-22T18:45:41.177Z,54.1359
2023-05-22T18:46:43.550Z,53.6569
2023-05-22T18:47:45.254Z,48.1299
2023-05-22T18:48:47.622Z,52.6519
2023-05-22T18:49:50.257Z,52.5532
2023-05-22T18:50:52.239Z,52.8982
2023-05-22T18:51:54.706Z,55.0735
2023-05-22T18:52:56.863Z,56.2262
2023-05-22T18:53:59.283Z,55.4303
2023-05-22T18:55:01.599Z,58.5097
2023-05-22T18:56:03.805Z,60.0638
2023-05-22T18:57:06.453Z,55.6960
2023-05-22T18:58:09.015Z,55.8418
2023-05-22T18:59:11.125Z,55.3494
2023-05-22T19:00:14.007Z,57.0987
2023-05-22T19:01:16.122Z,51.8536
2023-05-22T19:02:17.851Z,55.3494
2023-05-22T19:03:20.939Z,56.5760
2023-05-22T19:04:23.224Z,57.3741
2023-05-22T19:05:25.168Z,66.7644
2023-05-22T19:06:27.697Z,67.2863
2023-05-22T19:07:30.366Z,63.2048
2023-05-22T19:08:32.673Z,63.0683
2023-05-22T19:09:35.116Z,64.1111
2023-05-22T19:10:37.201Z,73.2445
2023-05-22T19:11:39.759Z,72.4293
2023-05-22T19:12:41.317Z,68.0189
2023-05-22T19:13:44.078Z,66.6942
2023-05-22T19:14:46.095Z,64.8419
2023-05-22T19:15:48.542Z,66.8092
2023-05-22T19:16:51.392Z,67.2023
2023-05-22T19:17:53.467Z,69.3951
2023-05-22T19:18:55.771Z,74.1301
2023-05-22T19:19:57.465Z,73.2198
2023-05-22T19:20:59.970Z,73.9091
2023-05-22T19:22:02.501Z,69.9437
2023-05-22T19:23:04.665Z,74.1437
2023-05-22T19:24:07.328Z,74.0901
2023-05-22T19:25:09.573Z,68.9787
2023-05-22T19:26:12.364Z,72.8467
2023-05-22T19:27:14.531Z,72.1539
2023-05-22T19:28:16.573Z,70.5540
2023-05-22T19:31:34.216Z,73.8905
2023-05-22T19:31:34.216Z,80.7400
2023-05-22T19:32:35.593Z,75.5576
2023-05-22T19:33:37.940Z,72.8256
2023-05-22T19:34:39.838Z,78.6971
2023-05-22T19:35:43.005Z,78.2703
2023-05-22T19:36:44.878Z,76.9521
2023-05-22T19:37:47.891Z,72.7634
2023-05-22T19:38:59.298Z,77.2380
2023-05-22T19:39:51.753Z,69.5059
2023-05-22T19:40:55.666Z,75.8863
2023-05-22T19:41:57.454Z,77.5187
2023-05-22T19:42:59.685Z,78.4679
2023-05-22T19:44:01.764Z,76.1214
2023-05-22T19:45:04.335Z,76.3347
2023-05-22T19:46:08.750Z,77.1509
2023-05-22T19:47:13.468Z,76.8656
2023-05-22T19:48:16.115Z,76.0308
2023-05-22T19:49:17.828Z,80.4843
2023-05-22T19:50:20.853Z,86.4629
2023-05-22T19:51:22.992Z,80.3108
2023-05-22T19:52:24.385Z,84.4573
2023-05-22T19:53:27.470Z,83.1288
2023-05-22T19:54:29.665Z,78.6690
2023-05-22T19:55:31.981Z,84.4378
2023-05-22T19:56:34.278Z,83.1572
2023-05-22T19:57:37.178Z,83.3707
2023-05-22T19:58:39.037Z,83.1429
2023-05-22T19:59:41.110Z,86.3608
2023-05-22T20:00:43.762Z,85.6556
2023-05-22T20:01:46.185Z,87.1065
2023-05-22T20:02:49.852Z,90.3773
2023-05-22T20:03:50.776Z,85.7544
2023-05-22T20:04:53.233Z,85.8623
2023-05-22T20:05:55.976Z,85.0090
2023-05-22T20:06:58.190Z,75.6419
2023-05-22T20:08:00.178Z,76.8314
2023-05-22T20:09:02.335Z,81.3078
2023-05-22T20:10:06.330Z,82.7001
2023-05-22T20:11:07.734Z,84.8850
2023-05-22T20:12:09.783Z,81.5283
2023-05-22T20:13:12.765Z,80.8596
2023-05-22T20:14:13.573Z,85.2253
2023-05-22T20:15:21.013Z,83.3948
2023-05-22T20:16:26.264Z,83.3505
2023-05-22T20:17:30.563Z,81.8533
2023-05-22T20:18:33.215Z,83.8411
2023-05-22T20:19:35.375Z,83.8115
2023-05-22T20:20:38.317Z,85.0042
2023-05-22T20:21:47.646Z,82.9106
2023-05-22T20:22:51.616Z,84.9803
2023-05-22T20:23:54.666Z,82.4974
2023-05-22T20:24:57.045Z,86.3222
2023-05-22T20:25:58.760Z,86.4568
2023-05-22T20:27:01.227Z,87.5926
2023-05-22T20:28:03.492Z,87.9628
2023-05-22T20:29:09.904Z,95.1565
2023-05-22T20:30:09.894Z,87.0355
2023-05-22T20:31:16.623Z,88.8918
2023-05-22T20:32:23.781Z,84.6871
2023-05-22T20:33:26.355Z,86.1907
2023-05-22T20:34:32.905Z,86.8955
2023-05-22T20:35:35.025Z,86.5215
2023-05-22T20:36:36.925Z,87.5375
2023-05-22T20:37:40.892Z,84.7268
2023-05-22T20:38:43.338Z,84.1283
2023-05-22T20:39:43.428Z,85.6851
2023-05-22T20:40:46.486Z,86.3466
2023-05-22T20:41:49.392Z,92.2682
2023-05-22T20:42:55.842Z,89.0894
2023-05-22T20:44:02.907Z,90.5455
2023-05-22T20:45:04.396Z,92.0377
2023-05-22T20:46:08.761Z,95.5539
2023-05-22T20:47:14.208Z,92.7763
2023-05-22T20:48:16.732Z,89.7343
2023-05-22T20:49:20.230Z,94.8409
2023-05-22T20:50:23.155Z,91.3190
2023-05-22T20:51:28.717Z,92.0621
2023-05-22T20:52:32.469Z,94.0088
2023-05-22T21:16:39.578Z,89.4002